Latest Weather Observations for Thredbo Top Station

IDN60801

Issued at 3:32 am EDT Wednesday 22 February 2017 (issued every 30 minutes, with the page automatically refreshed every 10 minutes)

About weather observations | Map of weather stations | Latest weather observations for NSW | Other Formats
Station Details ID: 071032 Name: THREDBO AWS Lat: -36.49 Lon: 148.29 Height: 1957.0 m
Data from the previous 72 hours. | See also: Recent months at Thredbo Top Station
Date/Time
EDT
Temp
°C
App
Temp
°C
Dew
Point
°C
Rel
Hum
%
Delta-T
°C
Wind Press
QNH
hPa
Press
MSL
hPa
Rain since
9am
mm
Dir  Spd
km/h
Gust
km/h
Spd
kts
Gust
kts
22/03:30am 8.6 -1.2 -6.7 33 5.9 NNW 37 41 20 22 1023.7 1015.0 0.0
22/03:00am 9.6 0.1 -7.5 29 6.5 N 35 43 19 23 1023.9 1015.1 0.0
22/02:30am 9.4 0.0 -6.8 31 6.3 N 35 43 19 23 1024.2 1015.5 0.0
22/02:00am 7.2 -1.8 -6.1 38 5.1 NNW 33 37 18 20 1024.5 1015.7 0.0
22/01:30am 7.8 -1.3 -7.1 34 5.6 NNW 33 37 18 20 1024.8 1016.1 0.0
22/01:00am 7.7 -1.0 -3.5 45 4.6 NNW 33 37 18 20 1024.8 1016.1 0.0
22/12:30am 8.3 -0.1 -2.3 47 4.5 NNW 32 41 17 22 1025.1 1016.4 0.0
22/12:00am 7.8 -1.0 1.4 64 2.9 NNW 37 44 20 24 1024.8 1016.1 0.0
 
Date/Time
EDT
Temp
°C
App
Temp
°C
Dew
Point
°C
Rel
Hum
%
Delta-T
°C
Wind Press
QNH
hPa
Press
MSL
hPa
Rain since
9am
mm
Dir  Spd
km/h
Gust
km/h
Spd
kts
Gust
kts
21/11:30pm 7.1 -1.6 2.0 70 2.4 N 37 43 20 23 1025.1 1016.4 0.0
21/11:00pm 8.1 -0.8 1.0 61 3.2 NNW 37 43 20 23 1025.3 1016.6 0.0
21/10:57pm 7.9 -0.2 1.1 62 3.1 NNW 33 43 18 23 1025.4 1016.7 0.0
21/10:30pm 7.0 1.4 0.2 62 3.0 N 19 24 10 13 1026.3 1017.6 0.0
21/10:00pm 6.6 1.3 2.1 73 2.1 NNW 19 22 10 12 1026.2 1017.5 0.0
21/09:30pm 6.6 2.4 1.5 70 2.3 N 13 19 7 10 1026.3 1017.6 0.0
21/09:00pm 7.9 3.6 1.3 63 3.0 ENE 13 20 7 11 1026.2 1017.5 0.0
21/08:30pm 8.5 4.8 0.2 56 3.7 NNE 9 13 5 7 1025.7 1017.0 0.0
21/08:00pm 9.8 5.8 0.7 53 4.2 NE 11 15 6 8 1025.3 1016.6 0.0
21/07:30pm 10.2 6.2 0.5 51 4.5 NNE 11 13 6 7 1025.3 1016.6 0.0
21/07:00pm 11.5 8.5 2.0 52 4.5 ENE 7 15 4 8 1025.2 1016.5 0.0
21/06:30pm 12.7 9.7 2.0 48 5.2 ENE 7 13 4 7 1024.8 1016.1 0.0
21/06:00pm 13.1 10.2 2.4 48 5.2 E 7 11 4 6 1024.8 1016.1 0.0
21/05:30pm 13.3 10.6 2.5 48 5.3 ESE 6 11 3 6 1024.8 1016.1 0.0
21/05:00pm 13.4 10.6 2.9 49 5.2 E 7 11 4 6 1024.6 1015.9 0.0
21/04:30pm 13.1 10.2 2.6 49 5.2 E 7 13 4 7 1024.7 1016.0 0.0
21/04:00pm 13.2 10.9 3.0 50 5.1 ESE 4 11 2 6 1024.6 1015.9 0.0
21/03:30pm 12.7 9.5 3.1 52 4.8 SSE 9 13 5 7 1024.7 1016.0 0.0
21/03:00pm 12.4 8.4 2.6 51 4.8 SSW 13 20 7 11 1024.7 1016.0 0.0
21/02:30pm 12.2 8.2 0.6 45 5.4 SSE 11 22 6 12 1024.8 1016.1 0.0
21/02:00pm 11.7 7.3 0.5 46 5.2 S 13 22 7 12 1024.8 1016.1 0.0
21/01:30pm 12.0 7.7 3.3 55 4.3 S 15 20 8 11 1024.7 1016.0 0.0
21/01:00pm 11.2 6.9 0.9 49 4.8 SSE 13 19 7 10 1024.6 1015.9 0.0
21/12:30pm 11.2 7.4 1.5 51 4.6 SSE 11 19 6 10 1024.5 1015.7 0.0
21/12:00pm 10.4 7.0 -0.4 47 4.9 SSE 7 13 4 7 1024.5 1015.7 0.0
21/11:30am 10.3 6.9 -0.5 47 4.9 SE 7 22 4 12 1024.5 1015.7 0.0
21/11:00am 9.4 6.1 0.3 53 4.1 SSE 7 15 4 8 1024.5 1015.7 0.0
21/10:30am 8.3 4.8 -1.2 51 4.1 SE 7 11 4 6 1024.2 1015.5 0.0
21/10:00am 7.8 4.6 -3.7 44 4.7 SE 4 11 2 6 1024.0 1015.2 0.0
21/09:30am 6.8 3.2 -2.1 53 3.7 NE 7 15 4 8 1023.5 1014.7 0.0
21/09:00am 5.2 1.3 -4.6 49 3.8 W 7 19 4 10 1023.0 1014.2 6.8
21/08:30am 3.9 -3.6 -4.5 54 3.2 W 26 33 14 18 1022.3 1013.5 6.8
21/08:00am 3.4 -4.1 -4.3 57 2.9 WNW 26 33 14 18 1021.8 1013.0 6.8
21/07:30am 3.0 -6.4 -6.6 49 3.6 WNW 35 43 19 23 1021.3 1012.5 6.8
21/07:00am 2.1 -8.2 -4.0 64 2.4 WNW 41 46 22 25 1020.6 1011.7 6.8
21/06:30am 1.4 -6.6 -2.7 74 1.7 WNW 30 35 16 19 1020.7 1011.8 6.8
21/06:00am 1.1 -5.8 -2.3 78 1.4 NW 24 32 13 17 1020.6 1011.7 6.8
21/05:30am 1.1 -6.3 -1.0 86 0.9 NW 28 35 15 19 1020.1 1011.2 6.8
21/05:00am 1.4 -7.2 -0.1 90 0.6 NW 35 43 19 23 1019.5 1010.6 6.8
21/04:30am 1.3 -8.1 0.1 92 0.5 NNW 39 44 21 24 1019.1 1010.2 6.8
21/04:00am 1.5 -6.7 0.5 93 0.4 NNW 33 44 18 24 1019.1 1010.2 6.8
21/03:30am 1.4 -4.7 0.7 95 0.3 NW 22 44 12 24 1019.9 1011.0 6.8
21/03:00am 1.6 -4.8 0.7 94 0.4 NW 24 35 13 19 1019.6 1010.7 6.8
21/02:30am 1.6 -5.2 0.9 95 0.3 NW 26 39 14 21 1019.4 1010.5 6.8
21/02:00am 1.5 -5.7 0.8 95 0.3 NW 28 39 15 21 1019.7 1010.8 6.8
21/01:30am 1.6 -5.2 1.0 96 0.3 NW 26 37 14 20 1019.7 1010.8 6.8
21/01:00am 1.7 -5.8 1.3 97 0.2 NW 30 41 16 22 1019.6 1010.7 6.8
21/12:30am 1.7 -4.6 1.6 99 0.0 WNW 24 37 13 20 1019.9 1011.0 6.8
21/12:00am 1.7 -5.0 1.4 98 0.1 WNW 26 35 14 19 1019.9 1011.0 6.8
 
Date/Time
EDT
Temp
°C
App
Temp
°C
Dew
Point
°C
Rel
Hum
%
Delta-T
°C
Wind Press
QNH
hPa
Press
MSL
hPa
Rain since
9am
mm
Dir  Spd
km/h
Gust
km/h
Spd
kts
Gust
kts
20/11:30pm 1.6 -6.2 1.5 99 0.0 WNW 32 46 17 25 1019.4 1010.5 6.8
20/11:00pm 1.6 -5.9 1.5 99 0.0 WNW 30 43 16 23 1019.1 1010.2 6.8
20/10:30pm 1.5 -6.0 1.4 99 0.0 WNW 30 41 16 22 1019.0 1010.1 6.8
20/10:00pm 1.5 -5.6 1.2 98 0.1 WNW 28 37 15 20 1018.8 1009.8 6.8
20/09:30pm 1.7 -5.4 1.4 98 0.1 WNW 28 39 15 21 1018.7 1009.7 6.8
20/09:00pm 1.6 -5.1 1.3 98 0.1 WNW 26 35 14 19 1018.3 1009.3 6.8
20/08:30pm 1.6 -4.3 1.5 99 0.0 WNW 22 33 12 18 1017.8 1008.8 6.8
20/08:00pm 1.6 -5.1 1.5 99 0.0 WNW 26 37 14 20 1017.2 1008.2 6.8
20/07:30pm 1.6 -4.7 1.5 99 0.0 WNW 24 37 13 20 1016.8 1007.8 6.8
20/07:00pm 1.7 -5.4 1.4 98 0.1 W 28 44 15 24 1016.2 1007.2 6.8
20/06:30pm 1.6 -5.2 0.9 95 0.3 W 26 41 14 22 1015.9 1006.8 6.8
20/06:00pm 1.4 -6.1 1.3 99 0.0 WNW 30 44 16 24 1015.6 1006.6 6.8
20/05:30pm 1.1 -6.4 1.0 99 0.0 WNW 30 48 16 26 1014.9 1005.8 6.8
20/05:25pm 1.1 -7.0 1.0 99 0.0 WNW 33 52 18 28 1014.7 1005.6 6.8
20/05:00pm 1.0 -7.1 0.9 99 0.0 W 33 48 18 26 1014.3 1005.2 6.8
20/04:30pm 0.6 -8.3 0.5 99 0.0 WNW 37 56 20 30 - - 6.8
20/04:10pm 0.5 -8.8 0.4 99 0.0 W 39 57 21 31 - - 6.8
20/04:00pm 0.5 -8.8 0.4 99 0.0 W 39 56 21 30 - - 6.8
20/03:38pm 0.3 -7.9 0.2 99 0.0 W 33 52 18 28 - - 6.8
20/03:30pm 0.2 -8.4 0.1 99 0.0 W 35 52 19 28 - - 6.8
20/03:29pm 0.2 -8.0 0.1 99 0.0 W 33 52 18 28 - - 6.8
20/03:00pm 0.1 -8.5 0.0 99 0.0 WNW 35 54 19 29 - - 6.8
20/02:51pm 0.1 -8.2 0.0 99 0.0 WNW 33 54 18 29 - - 6.8
20/02:30pm 0.0 -8.1 -0.1 99 0.0 WNW 32 46 17 25 - - 6.8
20/02:00pm 0.0 -9.8 -0.1 99 0.0 NW 41 52 22 28 - - 6.8
20/01:30pm -0.1 -10.5 -0.2 99 0.0 NW 44 56 24 30 - - 6.8
20/01:00pm -0.2 -9.6 -0.3 99 0.0 WNW 39 54 21 29 - - 6.8
20/12:30pm -0.5 -10.4 -0.6 99 0.0 NW 41 59 22 32 - - 5.8
20/12:16pm -0.6 -10.9 -0.7 99 0.0 NW 43 61 23 33 - - 5.6
20/12:00pm -0.6 -11.0 -0.7 99 0.0 NW 44 59 24 32 - - 5.2
20/11:44am -0.8 -9.9 -0.9 99 0.0 NW 37 57 20 31 - - 4.8
20/11:30am -0.7 -9.8 -0.8 99 0.0 NW 37 50 20 27 - - 4.4
20/11:18am -0.7 -9.4 -0.8 99 0.0 NW 35 54 19 29 - - 4.2
20/11:00am -1.0 -11.3 -1.1 99 0.0 NW 43 57 23 31 - - 3.8
20/10:42am -1.1 -10.3 -1.2 99 0.0 NW 37 56 20 30 - - 3.2
20/10:30am -0.9 -11.2 -1.0 99 0.0 NW 43 56 23 30 - - 3.0
20/10:00am -1.2 -10.4 -1.3 99 0.0 NW 37 54 20 29 - - 1.8
20/09:30am -1.4 -11.0 -1.5 99 0.0 NW 39 59 21 32 - - 0.2
20/09:24am -1.4 -11.0 -1.5 99 0.0 NW 39 59 21 32 - - 0.0
20/09:00am -1.8 -11.8 -1.9 99 -0.1 NW 41 54 22 29 - - 0.0
20/08:45am -2.0 -11.7 -2.1 99 -0.1 NW 39 57 21 31 - - 0.0
20/08:30am -2.1 -11.8 -2.2 99 -0.1 NW 39 54 21 29 - - 0.0
20/08:14am -2.0 -12.4 -2.1 99 -0.1 NNW 43 61 23 33 - - 0.0
20/08:00am -2.2 -12.9 -2.3 99 -0.1 NNW 44 57 24 31 - - 0.0
20/07:31am -2.5 -13.0 -2.8 98 0.0 NNW 43 61 23 33 - - 0.0
20/07:30am -2.3 -12.8 -2.4 99 -0.1 NW 43 57 23 31 - - 0.0
20/07:00am -2.4 -12.6 -3.1 95 0.1 NW 41 57 22 31 - - 0.0
20/06:30am -2.3 -12.4 -2.4 99 -0.1 NW 41 59 22 32 - - 0.0
20/06:16am -2.3 -10.9 -2.4 99 -0.1 NW 33 54 18 29 - - 0.0
20/06:00am -2.3 -11.3 -2.4 99 -0.1 NW 35 46 19 25 - - 0.0
20/05:30am -2.2 -9.4 -2.3 99 -0.1 WNW 26 39 14 21 - - 0.0
20/05:00am -2.3 -9.2 -2.4 99 -0.1 NW 24 37 13 20 - - 0.0
20/04:30am -2.3 -9.2 -2.4 99 -0.1 WNW 24 35 13 19 - - 0.0
20/04:07am -2.4 -11.0 -2.5 99 -0.1 WNW 33 52 18 28 - - 0.0
20/04:00am -2.6 -11.6 -2.7 99 -0.1 NW 35 50 19 27 - - 0.0
20/03:30am -2.2 -9.8 -2.3 99 -0.1 NW 28 41 15 22 - - 0.0
20/03:00am -1.9 -8.7 -2.0 99 -0.1 W 24 37 13 20 - - 0.0
20/02:30am -1.8 -8.6 -1.9 99 -0.1 W 24 35 13 19 - - 0.0
20/02:00am -1.5 -7.5 -1.6 99 0.0 W 20 26 11 14 - - 0.0
20/01:30am -1.4 -7.2 -1.5 99 0.0 WNW 19 30 10 16 - - 0.0
20/01:00am -1.4 -9.7 -1.5 99 0.0 NW 32 39 17 21 - - 0.0
20/12:46am -1.1 -8.6 -1.2 99 0.0 WNW 28 46 15 25 - - 0.0
20/12:30am -0.8 -6.1 -0.9 99 0.0 WNW 17 33 9 18 - - 0.0
20/12:00am -1.0 -8.1 -1.1 99 0.0 W 26 37 14 20 - - 0.0
 
Date/Time
EDT
Temp
°C
App
Temp
°C
Dew
Point
°C
Rel
Hum
%
Delta-T
°C
Wind Press
QNH
hPa
Press
MSL
hPa
Rain since
9am
mm
Dir  Spd
km/h
Gust
km/h
Spd
kts
Gust
kts
19/11:30pm 0.0 -6.2 -0.1 99 0.0 WNW 22 33 12 18 - - 0.0
19/11:00pm 0.3 -5.8 0.2 99 0.0 WNW 22 39 12 21 - - 0.0
19/10:30pm 0.4 -6.9 0.3 99 0.0 NW 28 41 15 22 - - 0.0
19/10:13pm 0.6 -9.1 0.5 99 0.0 NW 41 59 22 32 - - 0.0
19/10:00pm 1.6 -9.1 0.1 90 0.6 NNW 46 61 25 33 - - 0.0
19/09:30pm 2.0 -8.9 -1.1 80 1.3 NNW 46 61 25 33 - - 0.0
19/09:16pm 2.0 -8.3 -0.9 81 1.2 NNW 43 61 23 33 - - 0.0
19/09:00pm 1.9 -8.4 -0.8 82 1.1 NNW 43 54 23 29 - - 0.0
19/08:49pm 2.0 -8.9 -0.9 81 1.2 NNW 46 65 25 35 - - 0.0
19/08:30pm 2.0 -8.5 -1.1 80 1.3 NNW 44 57 24 31 - - 0.0
19/08:00pm 2.1 -7.8 -1.2 79 1.4 NW 41 56 22 30 - - 0.0
19/07:43pm 2.4 -7.5 -1.0 78 1.4 NW 41 59 22 32 - - 0.0
19/07:30pm 2.5 -7.4 -0.9 78 1.4 NW 41 57 22 31 - - 0.0
19/07:00pm 3.0 -5.8 -1.2 74 1.7 NW 35 56 19 30 - - 0.0
19/06:30pm 3.6 -5.2 -1.2 71 2.0 NW 35 54 19 29 - - 0.0
19/06:00pm 4.1 -4.1 -1.1 69 2.2 NW 32 50 17 27 - - 0.0
19/05:30pm 4.9 -5.0 -0.9 66 2.5 NW 41 59 22 32 - - 0.0
19/05:01pm 5.6 -4.4 -1.3 61 2.9 NW 41 59 22 32 - - 0.0
19/05:00pm 5.6 -4.7 -1.1 62 2.8 NW 43 59 23 32 - - 0.0
19/04:30pm 5.8 -4.2 -1.6 59 3.1 NW 41 59 22 32 - - 0.0
19/04:04pm 4.8 -6.9 -1.2 65 2.5 NNW 50 70 27 38 - - 0.0
19/04:00pm 5.0 -6.6 -1.0 65 2.5 NNW 50 67 27 36 - - 0.0
19/03:45pm 5.8 -4.5 -0.7 63 2.8 NNW 43 63 23 34 - - 0.0
19/03:30pm 6.4 -4.0 -0.1 63 2.9 NNW 44 59 24 32 - - 0.0
19/03:03pm 6.1 -4.2 0.4 67 2.5 NNW 44 63 24 34 - - 0.0
19/03:00pm 5.7 -4.7 -0.4 65 2.6 NNW 44 57 24 31 - - 0.0
19/02:30pm 5.6 -3.4 0.0 67 2.4 NNW 37 56 20 30 - - 0.0
19/02:00pm 5.5 -3.5 0.3 69 2.3 NNW 37 56 20 30 - - 0.0
19/01:40pm 5.2 -2.9 0.0 69 2.3 NW 32 54 17 29 - - 0.0
19/01:30pm 5.1 -3.1 0.1 70 2.2 NW 33 50 18 27 - - 0.0
19/01:00pm 4.3 -4.3 0.1 74 1.8 NNW 35 56 19 30 - - 0.0
19/12:30pm 4.9 -4.4 0.7 74 1.9 NNW 39 59 21 32 - - 0.0
19/12:09pm 5.0 -3.2 0.6 73 1.9 NW 33 52 18 28 - - 0.0
19/12:00pm 4.2 -4.4 0.0 74 1.8 NW 35 50 19 27 - - 0.0
19/11:30am 4.0 -4.1 -0.2 74 1.8 NW 32 48 17 26 - - 0.0
19/11:02am 3.6 -5.9 -0.6 74 1.8 NNW 39 57 21 31 - - 0.0
19/11:00am 3.7 -6.1 -0.5 74 1.8 NNW 41 57 22 31 - - 0.0
19/10:37am 3.9 -4.4 -0.5 73 1.9 NW 33 52 18 28 - - 0.0
19/10:30am 4.1 -4.2 -0.5 72 2.0 NW 33 50 18 27 - - 0.0
19/10:16am 3.5 -4.8 -1.4 70 2.0 NW 32 50 17 27 - - 0.0
19/10:00am 3.2 -5.0 -1.0 74 1.7 NW 32 43 17 23 - - 0.0
19/09:30am 2.7 -7.3 -1.5 74 1.7 NW 41 59 22 32 - - 0.0
19/09:09am 2.2 -6.7 -2.1 73 1.7 NW 35 54 19 29 - - 0.0
19/09:00am 2.5 -5.8 -2.0 72 1.8 NW 32 43 17 23 - - 0.0
19/08:30am 1.8 -5.8 -2.1 75 1.6 NW 28 41 15 22 - - 0.0
19/08:00am 1.1 -5.4 -2.6 76 1.5 NW 22 33 12 18 - - 0.0
19/07:30am 0.5 -5.0 -2.4 81 1.2 NW 17 30 9 16 - - 0.0
19/07:00am -0.1 -6.0 -2.5 84 0.9 WNW 19 30 10 16 - - 0.0
19/06:30am -0.3 -5.1 -2.5 85 0.8 WNW 13 20 7 11 - - 0.0
19/06:00am 0.0 -5.0 -1.1 92 0.4 WNW 15 22 8 12 - - 0.0
19/05:30am 0.5 -6.6 -0.9 90 0.6 NW 26 35 14 19 - - 0.0
19/05:00am 0.9 -6.6 -1.5 84 1.0 NW 28 37 15 20 - - 0.0
19/04:30am 1.1 -5.7 -1.5 83 1.0 NW 24 37 13 20 - - 0.0
19/04:00am 1.0 -5.6 -0.6 89 0.7 NW 24 32 13 17 - - 0.0

Other Formats:

Comma delimited format used in spreadsheet applications
http://www.bom.gov.au/fwo/IDN60801/IDN60801.95909.axf

JavaScript Object Notation format (JSON) in row-major order
http://www.bom.gov.au/fwo/IDN60801/IDN60801.95909.json